Time;durP1;ratioP1;P1;durP2;ratioP2;P2;SDS_P1;SDS_P2;PMS_P1;PMS_P2;Temp;Humidity;BMP_temperature;BMP_pressure;BME280_temperature;BME280_humidity;BME280_pressure;Samples;Min_cycle;Max_cycle;Signal;HPM_P1;HPM_P2
2022/07/14 00:01:56;;;;;;;2.37;1.60;;;25.00;50.20;;;;;;933058;151;27328;-71
2022/07/14 00:04:23;;;;;;;2.27;1.90;;;25.00;50.40;;;;;;932863;151;28411;-70
2022/07/14 00:06:50;;;;;;;2.08;1.98;;;25.00;50.60;;;;;;931328;151;27383;-70
2022/07/14 00:09:16;;;;;;;1.82;1.72;;;25.00;50.70;;;;;;932721;150;27389;-71
2022/07/14 00:11:43;;;;;;;2.40;2.00;;;25.00;50.80;;;;;;933526;151;27384;-71
2022/07/14 00:14:09;;;;;;;1.85;1.67;;;25.00;51.00;;;;;;931876;152;28067;-70
2022/07/14 00:16:36;;;;;;;4.22;1.92;;;25.00;51.00;;;;;;932155;150;27338;-70
2022/07/14 00:19:03;;;;;;;2.70;1.90;;;25.00;51.00;;;;;;931996;149;27316;-71
2022/07/14 00:21:29;;;;;;;1.98;1.80;;;25.00;51.00;;;;;;933081;150;27376;-71
2022/07/14 00:23:56;;;;;;;2.70;1.65;;;25.00;51.00;;;;;;931678;152;27413;-71
2022/07/14 00:26:22;;;;;;;2.02;1.82;;;25.00;51.30;;;;;;933457;151;27329;-71
2022/07/14 00:28:49;;;;;;;1.80;1.52;;;25.00;51.40;;;;;;931425;150;27432;-70
2022/07/14 00:31:16;;;;;;;2.20;2.00;;;25.00;51.30;;;;;;932590;151;27358;-71
2022/07/14 00:33:42;;;;;;;1.95;1.67;;;25.00;51.40;;;;;;932833;150;27453;-71
2022/07/14 00:36:09;;;;;;;1.95;1.85;;;25.00;51.50;;;;;;931260;151;27409;-71
2022/07/14 00:38:35;;;;;;;1.62;1.52;;;25.00;51.60;;;;;;933479;150;27276;-72
2022/07/14 00:41:02;;;;;;;2.45;1.80;;;25.00;51.50;;;;;;931384;149;27480;-71
2022/07/14 00:43:28;;;;;;;2.40;2.15;;;24.90;51.70;;;;;;933573;151;27334;-71
2022/07/14 00:45:55;;;;;;;1.82;1.52;;;24.90;51.70;;;;;;931787;151;27320;-71
2022/07/14 00:48:24;;;;;;;1.80;1.70;;;24.90;51.80;;;;;;930518;150;27254;-71
2022/07/14 00:50:49;;;;;;;2.05;1.85;;;24.90;52.00;;;;;;932011;152;27858;-72
2022/07/14 00:53:15;;;;;;;1.65;1.55;;;24.90;52.10;;;;;;931406;150;27504;-72
2022/07/14 00:55:42;;;;;;;2.12;1.98;;;24.90;52.20;;;;;;934464;150;27366;-72
2022/07/14 00:58:08;;;;;;;3.35;1.75;;;24.90;52.40;;;;;;932684;151;27714;-70
2022/07/14 01:00:34;;;;;;;2.25;1.92;;;24.90;52.50;;;;;;934574;151;27325;-71
2022/07/14 01:03:01;;;;;;;1.80;1.70;;;24.90;52.60;;;;;;936593;152;27305;-71
2022/07/14 01:05:28;;;;;;;2.55;1.77;;;24.90;52.60;;;;;;934055;151;27296;-71
2022/07/14 01:07:54;;;;;;;3.58;1.70;;;24.90;52.70;;;;;;934710;152;27369;-70
2022/07/14 01:10:21;;;;;;;2.87;2.15;;;24.80;52.80;;;;;;934180;151;27351;-70
2022/07/14 01:12:47;;;;;;;2.50;1.95;;;24.80;52.90;;;;;;934749;151;27270;-70
2022/07/14 01:15:14;;;;;;;2.15;1.82;;;24.80;52.90;;;;;;934749;151;27331;-70
2022/07/14 01:17:41;;;;;;;2.05;1.85;;;24.80;53.00;;;;;;933667;150;27399;-71
2022/07/14 01:20:08;;;;;;;1.80;1.70;;;24.80;53.10;;;;;;936557;151;27361;-71
2022/07/14 01:22:34;;;;;;;2.20;2.00;;;24.80;53.10;;;;;;931462;151;27928;-71
2022/07/14 01:25:01;;;;;;;3.08;2.10;;;24.80;53.10;;;;;;933705;151;27325;-72
2022/07/14 01:27:27;;;;;;;1.72;1.62;;;24.80;53.10;;;;;;935931;151;27361;-72
2022/07/14 01:29:54;;;;;;;1.80;1.70;;;24.80;53.20;;;;;;933878;151;27371;-72
2022/07/14 01:32:20;;;;;;;2.92;1.98;;;24.80;53.50;;;;;;936176;151;27439;-72
2022/07/14 01:34:47;;;;;;;2.35;1.70;;;24.70;53.60;;;;;;933063;151;27368;-72
2022/07/14 01:37:13;;;;;;;2.42;1.90;;;24.70;53.70;;;;;;935757;151;27443;-72
2022/07/14 01:39:40;;;;;;;2.25;1.75;;;24.70;53.80;;;;;;933733;151;27438;-72
2022/07/14 01:42:07;;;;;;;2.83;1.72;;;24.70;53.80;;;;;;932608;151;27323;-72
2022/07/14 01:44:33;;;;;;;2.92;2.27;;;24.70;54.00;;;;;;931403;152;27327;-72
2022/07/14 01:47:00;;;;;;;2.33;1.90;;;24.70;54.00;;;;;;934162;151;27421;-72
2022/07/14 01:49:26;;;;;;;2.55;2.35;;;24.70;54.10;;;;;;935804;151;27763;-72
2022/07/14 01:51:53;;;;;;;2.10;2.00;;;24.70;54.30;;;;;;934371;151;27375;-72
2022/07/14 01:54:19;;;;;;;2.70;2.50;;;24.70;54.30;;;;;;933964;151;27370;-72
2022/07/14 01:56:46;;;;;;;2.37;2.22;;;24.60;54.40;;;;;;932646;151;27370;-72
2022/07/14 01:59:13;;;;;;;1.90;1.80;;;24.60;54.40;;;;;;934063;151;27709;-72
2022/07/14 02:01:40;;;;;;;2.42;2.17;;;24.50;54.40;;;;;;933891;152;27337;-72
2022/07/14 02:04:06;;;;;;;1.95;1.85;;;24.50;54.50;;;;;;934949;151;27370;-72
2022/07/14 02:06:32;;;;;;;2.17;1.57;;;24.40;54.50;;;;;;933898;151;27316;-72
2022/07/14 02:08:59;;;;;;;2.42;1.67;;;24.40;54.60;;;;;;933518;151;27356;-71
2022/07/14 02:14:11;;;;;;;2.10;1.95;;;24.20;54.80;;;;;;934152;151;27509;-72
2022/07/14 02:16:37;;;;;;;2.25;1.80;;;24.10;54.80;;;;;;934777;151;27419;-71
2022/07/14 02:19:04;;;;;;;3.50;2.37;;;24.00;54.90;;;;;;935059;151;27476;-71
2022/07/14 02:21:30;;;;;;;4.15;2.30;;;24.00;55.20;;;;;;933121;151;27292;-71
2022/07/14 02:23:57;;;;;;;2.27;2.00;;;23.90;55.30;;;;;;932272;151;27394;-71
2022/07/14 02:26:23;;;;;;;2.98;2.00;;;23.80;55.40;;;;;;935763;152;27656;-71
2022/07/14 02:28:50;;;;;;;1.98;1.87;;;23.70;55.50;;;;;;932985;152;27361;-72
2022/07/14 02:31:17;;;;;;;2.40;1.95;;;23.60;55.70;;;;;;934652;151;27375;-71
2022/07/14 02:33:43;;;;;;;2.10;2.00;;;23.50;55.70;;;;;;934017;151;27328;-71
2022/07/14 02:36:10;;;;;;;2.47;1.90;;;23.40;55.20;;;;;;934675;151;27574;-71
2022/07/14 02:38:36;;;;;;;4.50;2.02;;;23.40;56.10;;;;;;935866;151;27478;-71
2022/07/14 02:41:04;;;;;;;2.00;1.60;;;23.20;56.10;;;;;;934062;151;27336;-72
2022/07/14 02:43:31;;;;;;;2.95;2.35;;;23.20;56.50;;;;;;936420;151;27506;-72
2022/07/14 02:45:56;;;;;;;2.85;2.15;;;23.10;56.80;;;;;;934156;152;27284;-72
2022/07/14 02:48:23;;;;;;;2.52;2.10;;;23.00;56.90;;;;;;934422;151;27370;-72
2022/07/14 02:50:49;;;;;;;2.05;1.92;;;22.90;57.20;;;;;;934654;151;27909;-72
2022/07/14 02:53:16;;;;;;;2.25;1.95;;;22.90;57.40;;;;;;934162;151;27349;-72
2022/07/14 02:55:43;;;;;;;2.10;1.90;;;22.80;57.40;;;;;;932528;151;27437;-72
2022/07/14 02:58:09;;;;;;;1.87;1.77;;;22.70;57.50;;;;;;932374;150;27438;-72
2022/07/14 03:00:36;;;;;;;2.40;2.20;;;22.70;57.60;;;;;;931211;151;27887;-72
2022/07/14 03:03:05;;;;;;;2.10;2.00;;;22.60;57.70;;;;;;931398;151;27304;-71
2022/07/14 03:05:29;;;;;;;2.92;1.98;;;22.60;57.90;;;;;;933487;151;27347;-71
2022/07/14 03:07:55;;;;;;;3.22;2.00;;;22.50;58.00;;;;;;932574;150;27398;-71
2022/07/14 03:10:22;;;;;;;3.20;2.00;;;22.50;58.30;;;;;;932189;150;27393;-72
2022/07/14 03:12:49;;;;;;;2.40;2.10;;;22.40;58.50;;;;;;933762;151;27259;-72
2022/07/14 03:15:15;;;;;;;3.62;1.90;;;22.40;58.70;;;;;;932259;151;27367;-72
2022/07/14 03:17:42;;;;;;;2.10;2.00;;;22.40;58.90;;;;;;932192;149;27339;-72
2022/07/14 03:20:08;;;;;;;3.35;2.50;;;22.30;58.80;;;;;;932455;151;27349;-72
2022/07/14 03:22:35;;;;;;;2.00;1.85;;;22.30;58.90;;;;;;933061;150;27345;-71
2022/07/14 03:25:02;;;;;;;2.15;2.05;;;22.30;59.00;;;;;;930985;150;27303;-71
2022/07/14 03:27:28;;;;;;;1.70;1.60;;;22.30;59.00;;;;;;931330;150;27331;-72
2022/07/14 03:29:55;;;;;;;2.15;1.85;;;22.30;59.20;;;;;;933547;150;27400;-72
2022/07/14 03:32:21;;;;;;;2.08;1.90;;;22.20;59.10;;;;;;932986;151;28249;-72
2022/07/14 03:34:49;;;;;;;2.20;1.85;;;22.20;59.20;;;;;;932847;151;27444;-72
2022/07/14 03:37:15;;;;;;;2.30;2.00;;;22.20;59.30;;;;;;931657;152;28117;-72
2022/07/14 03:39:41;;;;;;;2.67;2.02;;;22.20;59.50;;;;;;931741;152;27331;-72
2022/07/14 03:42:08;;;;;;;2.20;2.00;;;22.10;59.40;;;;;;934065;152;27327;-73
2022/07/14 03:44:34;;;;;;;2.35;2.00;;;22.10;59.50;;;;;;933143;151;27397;-73
2022/07/14 03:47:01;;;;;;;3.20;2.58;;;22.10;59.50;;;;;;932557;152;27914;-72
2022/07/14 03:49:27;;;;;;;3.50;2.20;;;22.10;59.60;;;;;;933574;149;27362;-72
2022/07/14 03:51:54;;;;;;;2.25;2.05;;;22.10;59.70;;;;;;933599;151;27357;-72
2022/07/14 03:54:21;;;;;;;2.08;1.98;;;22.00;59.90;;;;;;932181;151;27334;-73
2022/07/14 03:56:47;;;;;;;2.90;2.55;;;22.00;60.00;;;;;;932897;151;27302;-73
2022/07/14 03:59:14;;;;;;;2.60;1.92;;;22.00;60.70;;;;;;945803;150;27436;-73
2022/07/14 04:01:40;;;;;;;2.58;2.37;;;22.00;60.40;;;;;;945977;148;27432;-73
2022/07/14 04:04:07;;;;;;;2.47;2.30;;;22.00;60.50;;;;;;942860;150;27304;-73
2022/07/14 04:06:34;;;;;;;2.70;2.15;;;22.10;60.70;;;;;;942601;150;27300;-73
2022/07/14 04:09:03;;;;;;;2.55;2.35;;;22.10;60.80;;;;;;944287;148;27307;-72
2022/07/14 04:11:27;;;;;;;2.50;2.30;;;22.20;61.00;;;;;;946224;150;27357;-72
2022/07/14 04:13:53;;;;;;;3.95;3.22;;;22.20;61.00;;;;;;944534;150;27420;-72
2022/07/14 04:16:20;;;;;;;3.87;3.30;;;22.30;61.00;;;;;;944438;148;27316;-72
2022/07/14 04:18:47;;;;;;;3.17;2.87;;;22.30;61.10;;;;;;946877;150;27303;-72
2022/07/14 04:21:13;;;;;;;3.12;2.83;;;22.40;61.20;;;;;;943990;148;27307;-72
2022/07/14 04:23:40;;;;;;;3.72;2.98;;;22.40;61.20;;;;;;944570;150;27325;-72
2022/07/14 04:26:06;;;;;;;4.87;3.10;;;22.50;61.10;;;;;;945046;148;27351;-72
2022/07/14 04:28:33;;;;;;;3.70;2.67;;;22.50;61.00;;;;;;944105;148;27666;-72
2022/07/14 04:31:00;;;;;;;3.27;2.95;;;22.60;61.00;;;;;;943823;148;27327;-72
2022/07/14 04:33:26;;;;;;;4.50;2.83;;;22.60;61.10;;;;;;943421;148;27350;-70
2022/07/14 04:35:53;;;;;;;4.87;2.45;;;22.70;61.10;;;;;;942308;150;27301;-70
2022/07/14 04:38:19;;;;;;;3.05;2.47;;;22.70;61.00;;;;;;945377;148;27284;-70
2022/07/14 04:40:49;;;;;;;3.40;2.40;;;22.80;61.00;;;;;;946212;150;27363;-72
2022/07/14 04:43:16;;;;;;;2.62;2.42;;;22.80;60.90;;;;;;944832;148;27315;-72
2022/07/14 04:45:42;;;;;;;2.92;2.62;;;22.80;60.90;;;;;;945013;148;27293;-72
2022/07/14 04:48:09;;;;;;;2.60;2.40;;;22.80;60.70;;;;;;945616;150;27317;-72
2022/07/14 04:53:20;;;;;;;2.33;2.20;;;22.80;60.80;;;;;;946536;150;27408;-72
2022/07/14 04:55:46;;;;;;;3.85;2.30;;;22.80;60.70;;;;;;944117;148;27451;-72
2022/07/14 04:58:13;;;;;;;2.30;2.10;;;22.80;60.80;;;;;;940541;150;27471;-72
2022/07/14 05:00:39;;;;;;;2.60;2.40;;;22.80;61.00;;;;;;933927;151;27271;-72
2022/07/14 05:03:06;;;;;;;3.02;2.58;;;22.80;61.10;;;;;;935108;151;27344;-72
2022/07/14 05:05:33;;;;;;;2.30;2.20;;;22.70;61.40;;;;;;931652;151;27679;-72
2022/07/14 05:07:59;;;;;;;2.55;2.35;;;22.70;61.20;;;;;;935803;151;27298;-72
2022/07/14 05:10:26;;;;;;;2.22;2.12;;;22.70;61.40;;;;;;933393;151;27335;-72
2022/07/14 05:12:52;;;;;;;4.28;2.35;;;22.70;61.30;;;;;;933946;149;28072;-73
2022/07/14 05:15:20;;;;;;;2.85;2.33;;;22.70;61.40;;;;;;932334;149;27285;-72
2022/07/14 05:17:46;;;;;;;2.20;2.10;;;22.70;61.50;;;;;;934432;151;28048;-72
2022/07/14 05:20:12;;;;;;;3.42;2.27;;;22.70;61.60;;;;;;931976;151;27439;-72
2022/07/14 05:22:39;;;;;;;2.37;2.22;;;22.70;61.70;;;;;;935441;151;27314;-71
2022/07/14 05:25:08;;;;;;;3.00;2.50;;;22.80;61.90;;;;;;933392;151;27418;-72
2022/07/14 05:27:35;;;;;;;5.53;2.55;;;22.80;62.10;;;;;;935102;151;27354;-73
2022/07/14 05:30:02;;;;;;;3.17;2.30;;;22.90;62.20;;;;;;934825;151;27421;-72
2022/07/14 05:32:28;;;;;;;2.40;2.20;;;23.00;62.20;;;;;;934478;151;28018;-72
2022/07/14 05:34:55;;;;;;;3.47;2.65;;;23.10;62.20;;;;;;933637;151;27266;-72
2022/07/14 05:37:21;;;;;;;4.05;2.50;;;23.20;62.20;;;;;;934877;151;27351;-72
2022/07/14 05:39:48;;;;;;;3.45;2.55;;;23.30;62.10;;;;;;934717;152;27301;-72
2022/07/14 05:42:15;;;;;;;2.45;2.25;;;23.40;61.90;;;;;;933522;149;27375;-71
2022/07/14 05:44:41;;;;;;;3.17;2.58;;;23.50;61.70;;;;;;934842;151;28627;-71
2022/07/14 05:47:08;;;;;;;3.52;2.22;;;23.60;61.70;;;;;;932098;152;27420;-71
2022/07/14 05:49:35;;;;;;;2.60;2.37;;;23.70;61.60;;;;;;932217;152;27829;-71
2022/07/14 05:52:02;;;;;;;3.47;2.60;;;23.80;61.50;;;;;;932436;151;27355;-72
2022/07/14 05:54:27;;;;;;;4.45;2.37;;;23.90;61.50;;;;;;932114;152;27842;-72
2022/07/14 05:56:54;;;;;;;3.60;2.90;;;23.90;61.50;;;;;;934532;151;27320;-71
2022/07/14 05:59:21;;;;;;;3.12;2.62;;;24.10;61.50;;;;;;932576;151;27342;-72
2022/07/14 06:01:47;;;;;;;9.23;3.22;;;24.20;61.40;;;;;;934848;151;27306;-71
2022/07/14 06:04:14;;;;;;;3.40;3.12;;;24.30;61.40;;;;;;934789;151;27303;-71
2022/07/14 06:06:46;;;;;;;4.67;3.47;;;24.40;61.40;;;;;;935272;151;27460;-71
2022/07/14 06:09:13;;;;;;;3.55;2.98;;;24.60;61.40;;;;;;934954;151;27425;-70
2022/07/14 06:11:44;;;;;;;3.87;3.22;;;24.80;61.30;;;;;;933931;151;27292;-71
2022/07/14 06:14:09;;;;;;;8.83;3.27;;;25.00;61.20;;;;;;932823;151;27344;-72
2022/07/14 06:16:36;;;;;;;3.15;2.92;;;25.20;61.10;;;;;;932300;151;27335;-76
2022/07/14 06:19:02;;;;;;;2.52;2.33;;;25.50;61.60;;;;;;932976;151;27440;-77
2022/07/14 06:21:29;;;;;;;2.65;2.40;;;25.80;61.80;;;;;;932568;151;27355;-75
2022/07/14 06:23:55;;;;;;;2.80;2.22;;;26.20;61.20;;;;;;934761;152;27294;-75
2022/07/14 06:26:22;;;;;;;2.15;2.05;;;26.60;60.20;;;;;;934347;151;27327;-75
2022/07/14 06:28:49;;;;;;;2.40;2.20;;;26.90;59.30;;;;;;933779;151;27255;-75
2022/07/14 06:31:15;;;;;;;2.22;1.80;;;27.10;58.60;;;;;;932123;151;27365;-76
2022/07/14 06:33:43;;;;;;;2.55;2.12;;;27.20;57.80;;;;;;933300;151;27346;-75
2022/07/14 06:36:08;;;;;;;1.82;1.72;;;27.30;57.30;;;;;;932761;151;27325;-75
2022/07/14 06:38:35;;;;;;;2.27;2.10;;;27.30;56.90;;;;;;933090;151;27541;-74
2022/07/14 06:41:02;;;;;;;3.25;1.98;;;27.30;56.70;;;;;;935471;149;27322;-74
2022/07/14 06:43:28;;;;;;;2.22;2.02;;;27.30;56.50;;;;;;933242;152;27415;-76
2022/07/14 06:45:55;;;;;;;3.00;2.00;;;27.30;56.30;;;;;;931984;151;27326;-74
2022/07/14 06:48:23;;;;;;;1.87;1.65;;;27.20;56.20;;;;;;933942;151;27347;-72
2022/07/14 06:50:48;;;;;;;4.10;1.90;;;27.20;56.30;;;;;;934073;151;27418;-74
2022/07/14 06:53:14;;;;;;;2.42;2.22;;;27.20;57.00;;;;;;933395;151;27437;-73
2022/07/14 06:55:41;;;;;;;3.77;1.87;;;27.30;56.70;;;;;;933987;151;27363;-75
2022/07/14 06:58:08;;;;;;;1.98;1.87;;;27.60;57.00;;;;;;933112;152;27961;-75
2022/07/14 07:00:34;;;;;;;1.60;1.50;;;27.90;57.20;;;;;;931627;148;27373;-72
2022/07/14 07:03:01;;;;;;;2.45;2.17;;;28.40;57.30;;;;;;933459;151;27335;-72
2022/07/14 07:08:13;;;;;;;4.22;1.80;;;29.40;56.30;;;;;;932707;151;27318;-72
2022/07/14 07:10:42;;;;;;;2.95;2.30;;;30.00;55.70;;;;;;933065;151;27345;-72
2022/07/14 07:13:05;;;;;;;1.50;1.40;;;30.60;55.60;;;;;;933990;151;27355;-74
2022/07/14 07:15:32;;;;;;;1.65;1.55;;;31.30;55.70;;;;;;933894;151;27338;-71
2022/07/14 07:17:59;;;;;;;1.57;1.47;;;32.10;54.70;;;;;;933833;151;27371;-72
2022/07/14 07:20:25;;;;;;;1.55;1.50;;;32.80;53.10;;;;;;935005;149;27311;-72
2022/07/14 07:22:52;;;;;;;1.82;1.72;;;33.40;51.40;;;;;;933493;151;27283;-71
2022/07/14 07:25:19;;;;;;;1.70;1.60;;;33.80;50.10;;;;;;932945;152;27331;-74
2022/07/14 07:27:45;;;;;;;1.72;1.62;;;34.00;48.90;;;;;;934545;151;27353;-71
2022/07/14 07:30:11;;;;;;;1.72;1.60;;;34.10;48.10;;;;;;932358;151;27309;-72
2022/07/14 07:32:38;;;;;;;2.52;1.50;;;34.10;47.60;;;;;;932225;151;27340;-72
2022/07/14 07:35:05;;;;;;;5.37;1.95;;;34.10;47.30;;;;;;933957;151;27280;-71
2022/07/14 07:37:31;;;;;;;1.90;1.50;;;34.00;47.10;;;;;;933309;151;27374;-72
2022/07/14 07:39:58;;;;;;;2.30;1.70;;;34.00;47.00;;;;;;933857;151;27698;-72
2022/07/14 07:42:25;;;;;;;2.50;1.50;;;33.90;46.80;;;;;;932842;151;27442;-72
2022/07/14 07:44:51;;;;;;;3.20;1.70;;;33.80;46.60;;;;;;935234;151;27331;-72
2022/07/14 07:47:18;;;;;;;1.70;1.60;;;33.70;46.50;;;;;;934179;151;27317;-72
2022/07/14 07:49:44;;;;;;;1.70;1.60;;;33.60;46.90;;;;;;934269;151;27290;-72
2022/07/14 07:52:11;;;;;;;1.75;1.65;;;33.50;46.30;;;;;;935392;151;27386;-75
2022/07/14 07:54:37;;;;;;;2.22;1.65;;;33.30;46.10;;;;;;935214;151;27459;-72
2022/07/14 07:57:05;;;;;;;1.75;1.65;;;33.20;45.90;;;;;;933294;151;27395;-72
2022/07/14 07:59:31;;;;;;;2.25;2.05;;;33.00;45.80;;;;;;933242;149;27316;-72
2022/07/14 08:01:57;;;;;;;1.47;1.45;;;32.80;45.90;;;;;;934474;151;27310;-73
2022/07/14 08:04:24;;;;;;;2.42;1.87;;;32.60;46.10;;;;;;934127;151;27421;-73
2022/07/14 08:06:50;;;;;;;1.67;1.57;;;32.40;46.20;;;;;;934387;151;27656;-72
2022/07/14 08:09:17;;;;;;;2.83;1.70;;;32.20;45.50;;;;;;934093;151;28335;-72
2022/07/14 08:11:43;;;;;;;1.67;1.55;;;32.00;46.10;;;;;;934345;151;27374;-72
2022/07/14 08:16:58;;;;;;;3.30;1.80;;;31.70;46.60;;;;;;934066;151;27395;-72
2022/07/14 08:19:24;;;;;;;3.25;2.00;;;31.60;46.90;;;;;;933143;152;27379;-72
2022/07/14 08:21:51;;;;;;;3.27;1.85;;;31.60;47.20;;;;;;933755;151;27426;-72
2022/07/14 08:24:20;;;;;;;3.60;1.90;;;31.60;47.30;;;;;;933749;151;27276;-72
2022/07/14 08:26:47;;;;;;;3.37;1.70;;;31.60;47.30;;;;;;935350;151;27305;-72
2022/07/14 08:29:13;;;;;;;1.45;1.35;;;31.70;47.30;;;;;;937497;151;27311;-74
2022/07/14 08:31:40;;;;;;;2.02;1.62;;;31.80;47.30;;;;;;933672;152;27364;-72
2022/07/14 08:34:06;;;;;;;1.80;1.70;;;31.80;47.20;;;;;;934532;151;27316;-72
2022/07/14 08:36:33;;;;;;;3.27;1.50;;;31.90;47.10;;;;;;933466;151;27320;-71
2022/07/14 08:39:01;;;;;;;3.42;1.72;;;32.00;47.00;;;;;;933818;151;27793;-71
2022/07/14 08:41:26;;;;;;;1.57;1.40;;;32.00;46.80;;;;;;935476;152;27388;-72
2022/07/14 08:43:53;;;;;;;2.95;1.75;;;32.00;46.50;;;;;;935032;151;27448;-74
2022/07/14 08:46:19;;;;;;;3.08;1.50;;;32.10;46.60;;;;;;933100;151;27372;-71
2022/07/14 08:48:46;;;;;;;2.25;1.80;;;32.20;46.50;;;;;;934351;149;27373;-72
2022/07/14 08:51:12;;;;;;;3.37;1.60;;;32.30;46.50;;;;;;935127;151;27299;-71
2022/07/14 08:53:39;;;;;;;3.35;1.80;;;32.40;46.60;;;;;;934902;151;27306;-72
2022/07/14 08:56:06;;;;;;;1.77;1.57;;;32.50;46.40;;;;;;936076;151;27341;-74
2022/07/14 08:58:32;;;;;;;1.90;1.80;;;32.70;46.50;;;;;;932351;151;27344;-71
2022/07/14 09:00:59;;;;;;;3.00;2.00;;;33.00;46.60;;;;;;932161;151;27327;-71
2022/07/14 09:03:25;;;;;;;1.70;1.60;;;33.20;46.10;;;;;;933243;151;27349;-71
2022/07/14 09:05:53;;;;;;;2.20;1.80;;;33.50;45.80;;;;;;934598;151;27327;-72
2022/07/14 09:08:19;;;;;;;1.75;1.65;;;33.90;45.70;;;;;;933945;151;26256;-73
2022/07/14 09:10:45;;;;;;;2.25;1.57;;;34.30;45.60;;;;;;933822;152;27365;-71
2022/07/14 09:13:12;;;;;;;2.35;1.67;;;34.80;45.20;;;;;;935646;152;27346;-72
2022/07/14 09:15:47;;;;;;;3.12;1.82;;;35.20;44.90;;;;;;936146;151;26195;-71
2022/07/14 09:18:20;;;;;;;2.92;1.98;;;35.60;44.00;;;;;;934356;151;26251;-71
2022/07/14 09:20:47;;;;;;;1.80;1.70;;;36.00;43.30;;;;;;933217;151;26227;-71
2022/07/14 09:23:13;;;;;;;3.70;1.72;;;36.50;43.20;;;;;;932759;151;26707;-74
2022/07/14 09:25:40;;;;;;;1.72;1.62;;;36.90;42.60;;;;;;933953;151;26348;-72
2022/07/14 09:28:09;;;;;;;3.80;1.80;;;37.20;42.00;;;;;;933496;151;26209;-72
2022/07/14 09:30:33;;;;;;;2.42;1.70;;;37.40;41.30;;;;;;933069;152;26329;-72
2022/07/14 09:33:00;;;;;;;2.35;1.62;;;37.50;40.90;;;;;;933744;151;27235;-72
2022/07/14 09:35:29;;;;;;;2.75;1.65;;;37.60;40.40;;;;;;934345;152;27254;-72
2022/07/14 09:37:56;;;;;;;2.02;1.50;;;37.70;40.10;;;;;;931749;151;26689;-72
2022/07/14 09:40:28;;;;;;;1.57;1.47;;;37.80;40.10;;;;;;933630;151;26316;-72
2022/07/14 09:43:03;;;;;;;2.98;1.72;;;37.90;39.90;;;;;;933783;151;26182;-72
2022/07/14 09:45:33;;;;;;;3.52;2.52;;;38.00;39.90;;;;;;934056;151;28079;-73
2022/07/14 09:48:08;;;;;;;3.12;2.02;;;38.10;39.00;;;;;;933996;151;26253;-72
2022/07/14 09:50:37;;;;;;;1.85;1.75;;;38.20;38.50;;;;;;932587;151;26660;-72
2022/07/14 09:53:25;;;;;;;2.80;1.90;;;38.30;38.60;;;;;;931468;151;26336;-73
2022/07/14 09:55:56;;;;;;;1.85;1.75;;;38.30;38.60;;;;;;933173;151;27328;-75
2022/07/14 09:58:21;;;;;;;2.15;1.77;;;38.40;38.70;;;;;;934279;151;26267;-73
2022/07/14 10:01:08;;;;;;;1.62;1.50;;;38.50;38.30;;;;;;934873;151;26332;-72
2022/07/14 10:03:35;;;;;;;1.57;1.47;;;38.50;37.30;;;;;;933429;152;26617;-72
2022/07/14 10:06:02;;;;;;;1.80;1.70;;;38.40;37.30;;;;;;933637;151;26219;-72
2022/07/14 10:08:28;;;;;;;3.47;1.80;;;38.30;37.30;;;;;;934678;151;26235;-73
2022/07/14 10:10:55;;;;;;;2.55;1.60;;;38.20;37.50;;;;;;934141;151;26291;-70
2022/07/14 10:13:22;;;;;;;2.00;1.62;;;38.10;38.00;;;;;;932573;151;27362;-73
2022/07/14 10:15:49;;;;;;;2.17;1.47;;;38.10;38.10;;;;;;934212;151;26238;-72
2022/07/14 10:18:15;;;;;;;2.90;1.90;;;38.20;38.00;;;;;;933764;150;26196;-71
2022/07/14 10:20:41;;;;;;;2.10;1.90;;;38.20;37.80;;;;;;934239;151;26273;-73
2022/07/14 10:23:08;;;;;;;2.60;1.98;;;38.30;37.40;;;;;;933400;151;26797;-74
2022/07/14 10:25:34;;;;;;;2.65;1.98;;;38.40;36.50;;;;;;934045;151;26372;-72
2022/07/14 10:28:01;;;;;;;2.17;1.98;;;38.30;36.60;;;;;;934711;151;26172;-71
2022/07/14 10:30:33;;;;;;;2.27;1.50;;;38.20;36.70;;;;;;934336;151;27458;-72
2022/07/14 10:33:06;;;;;;;2.30;1.92;;;38.00;36.80;;;;;;932426;152;27673;-72
2022/07/14 10:35:54;;;;;;;2.05;1.80;;;37.90;36.70;;;;;;934439;151;27441;-74
2022/07/14 10:38:54;;;;;;;2.00;1.50;;;37.60;36.50;;;;;;934231;151;28051;-72
2022/07/14 10:41:26;;;;;;;2.17;1.67;;;37.40;36.30;;;;;;932624;151;27434;-72
2022/07/14 10:44:11;;;;;;;1.57;1.47;;;37.20;36.20;;;;;;934411;151;27299;-72
2022/07/14 10:46:40;;;;;;;1.87;1.77;;;36.90;36.50;;;;;;934666;151;27309;-72
2022/07/14 10:49:07;;;;;;;2.22;2.02;;;36.70;36.30;;;;;;933823;149;27398;-73
2022/07/14 10:51:33;;;;;;;2.08;1.98;;;36.50;36.50;;;;;;935338;151;27413;-74
2022/07/14 10:54:10;;;;;;;2.33;1.90;;;36.30;36.70;;;;;;933280;151;27322;-72
2022/07/14 10:56:36;;;;;;;1.77;1.67;;;36.00;36.80;;;;;;933252;152;27281;-72
2022/07/14 10:59:28;;;;;;;1.52;1.42;;;35.90;37.10;;;;;;933652;151;27319;-72
2022/07/14 11:02:12;;;;;;;2.67;2.10;;;35.70;37.20;;;;;;931996;148;27419;-72
2022/07/14 11:05:00;;;;;;;4.30;1.87;;;35.60;37.10;;;;;;935073;151;27295;-72
2022/07/14 11:07:47;;;;;;;2.08;1.62;;;35.40;37.10;;;;;;932438;151;27349;-72
2022/07/14 11:10:20;;;;;;;3.25;2.00;;;35.30;37.30;;;;;;934913;152;27368;-73
2022/07/14 11:13:05;;;;;;;1.80;1.70;;;35.10;37.70;;;;;;934888;151;27395;-73
2022/07/14 11:15:52;;;;;;;1.98;1.82;;;34.90;37.90;;;;;;932733;149;27630;-71
2022/07/14 11:18:21;;;;;;;2.17;1.90;;;34.80;38.10;;;;;;931604;149;27331;-72
2022/07/14 11:20:51;;;;;;;1.92;1.80;;;34.70;38.10;;;;;;935573;151;27361;-73
2022/07/14 11:23:17;;;;;;;2.00;1.90;;;34.70;38.40;;;;;;934152;151;27454;-72
2022/07/14 11:25:44;;;;;;;2.15;1.98;;;34.60;38.40;;;;;;936276;151;28562;-72
2022/07/14 11:28:32;;;;;;;2.27;2.12;;;34.50;38.60;;;;;;933370;151;27328;-72
2022/07/14 11:31:08;;;;;;;2.80;2.20;;;34.40;38.90;;;;;;933105;151;27409;-72
2022/07/14 11:33:34;;;;;;;2.42;2.33;;;34.40;39.20;;;;;;935209;151;27302;-72
2022/07/14 11:36:19;;;;;;;4.75;2.25;;;34.30;39.20;;;;;;934143;151;27285;-72
2022/07/14 11:38:46;;;;;;;4.22;1.95;;;34.10;39.20;;;;;;933887;152;27390;-73
2022/07/14 11:41:15;;;;;;;3.47;2.10;;;34.00;39.50;;;;;;934647;151;27341;-72
2022/07/14 11:43:50;;;;;;;2.27;2.12;;;33.90;39.70;;;;;;934142;151;27364;-72
2022/07/14 11:46:14;;;;;;;5.05;2.40;;;33.80;39.70;;;;;;933121;151;27332;-72
2022/07/14 11:48:44;;;;;;;3.20;1.98;;;33.70;39.80;;;;;;932783;152;27318;-72
2022/07/14 11:51:14;;;;;;;4.83;2.55;;;33.70;40.10;;;;;;932047;151;27378;-73
2022/07/14 11:53:39;;;;;;;2.25;2.08;;;33.60;40.10;;;;;;932163;151;27464;-72
2022/07/14 11:56:09;;;;;;;2.58;2.27;;;33.60;40.30;;;;;;933818;151;27849;-73
2022/07/14 11:58:39;;;;;;;3.12;2.08;;;33.60;40.60;;;;;;934069;152;27420;-72
2022/07/14 12:01:05;;;;;;;2.65;2.40;;;33.60;40.70;;;;;;935002;151;27425;-74
2022/07/14 12:03:32;;;;;;;2.47;2.27;;;33.70;40.70;;;;;;935189;151;27375;-73
2022/07/14 12:05:58;;;;;;;2.12;1.95;;;33.70;40.70;;;;;;939083;151;28643;-72
2022/07/14 12:08:27;;;;;;;2.37;2.20;;;33.80;40.70;;;;;;938630;151;27308;-73
2022/07/14 12:10:54;;;;;;;2.95;2.33;;;33.90;40.70;;;;;;935298;151;27400;-74
2022/07/14 12:13:20;;;;;;;3.12;2.20;;;34.00;40.60;;;;;;937794;151;27349;-72
2022/07/14 12:15:47;;;;;;;2.40;2.17;;;34.10;40.60;;;;;;938056;151;27436;-73
2022/07/14 12:18:13;;;;;;;2.20;2.00;;;34.20;40.60;;;;;;937230;151;27285;-72
2022/07/14 12:20:43;;;;;;;4.25;2.35;;;34.30;40.60;;;;;;935816;149;27380;-73
2022/07/14 12:23:09;;;;;;;3.45;2.52;;;34.20;41.10;;;;;;937745;151;27463;-74
2022/07/14 12:25:36;;;;;;;3.17;2.87;;;34.30;39.70;;;;;;938215;151;27358;-72
2022/07/14 12:28:02;;;;;;;2.75;2.52;;;34.30;40.30;;;;;;935793;151;28865;-71
2022/07/14 12:30:47;;;;;;;2.80;2.40;;;34.30;40.30;;;;;;936090;149;27364;-71
2022/07/14 12:33:14;;;;;;;3.30;2.60;;;34.40;40.30;;;;;;936259;149;27405;-71
2022/07/14 12:35:40;;;;;;;2.62;2.25;;;34.30;40.40;;;;;;935468;151;27302;-73
2022/07/14 12:38:08;;;;;;;2.52;2.33;;;34.30;40.30;;;;;;935269;149;27330;-74
2022/07/14 12:40:34;;;;;;;3.85;2.40;;;34.30;40.30;;;;;;935524;151;27325;-72
2022/07/14 12:43:01;;;;;;;2.47;2.22;;;34.30;40.30;;;;;;936058;151;27267;-73
2022/07/14 12:45:27;;;;;;;2.40;2.27;;;34.20;40.30;;;;;;936767;151;27440;-72
2022/07/14 12:48:00;;;;;;;3.30;2.02;;;34.20;40.30;;;;;;934261;151;27428;-72
2022/07/14 12:50:23;;;;;;;2.67;2.20;;;34.30;40.40;;;;;;935099;151;27399;-72
2022/07/14 12:52:52;;;;;;;3.70;2.22;;;34.30;40.60;;;;;;936862;151;27403;-72
2022/07/14 12:55:34;;;;;;;4.97;2.55;;;34.30;40.50;;;;;;936306;151;27429;-72
2022/07/14 12:58:03;;;;;;;2.27;2.08;;;34.30;40.40;;;;;;936133;151;27300;-72
2022/07/14 13:00:30;;;;;;;2.33;2.17;;;34.30;40.30;;;;;;937138;151;27352;-73
2022/07/14 13:03:15;;;;;;;2.70;2.00;;;34.30;40.10;;;;;;935124;148;27329;-73